Aeroporto :
LOGIN :

Iscrizione | Disclaimer

   EN    FR    IT 

 










Sommario :    VFR   VFR Marginale   IFR   IFR Intensivo   IFR Molto Intensivo
Visibilità : 
Base nubi : 
>= 8 km
>= 3000ft
5 / 8 km
1000 / 3000 ft
1500m / 5 km
500 / 1000 ft
800 / 1500m
200 / 500 ft
< 800m
< 200 ft
Simboli :   Temporali  Nebbia  Neve Forte  Precipitazioni Forti  Vento > 20 kt
SIGMETs :   Varie  Temporali  Ghiacco  Turbolenza  Onda orograficha  Ceneri Vulcaniche






- Altitudine del aeroporto : 278 ft
- Codice IATA : RJK


LDRI - Rijeka

ULTIMO METAR :
  • 242230Z 05003KT 340V090 9999 FEW040 09/06 Q1026

METARs OBSOLETI :
  • 242200Z 00000KT 9999 FEW040 09/06 Q1026
  • 242130Z 20003KT 150V240 CAVOK 08/05 Q1027
  • 242100Z VRB02KT CAVOK 09/04 Q1027
  • 242030Z 09003KT 360V140 CAVOK 09/04 Q1027
  • 242000Z 10003KT CAVOK 08/04 Q1027

TAF TAF LDRI
Valido dal 24 a 18 ore il 25 a 18 ore UTC


241725Z 2418/2518 09005KT 9999 SCT030 TX11/2513Z TN06/2506Z
PROB40
TEMPO 2503/2514 15008KT RA BKN014
PROB30
TEMPO 2505/2518 4000 -RA BR BKN007



MetMap, La meteo Aeronautica in un colpo d'occhio ! - Copyright ORBIFLY Dicembre 2007 - Disclaimer

ORBIFLY MET'MAP TEAM :

Programmazione e sviluppo : Alexandra Zaïnal
Concezione : Baudouin d'Aumeries
Aiuto per la programmazione : Marc-Olivier Méhu
Supporto tecnico e logistico : Manuel Goepfert
Aiuto per la traduzione : Arnaldo La Scala

Contatto : metmap@orbifly.com




FONTI E CREDITI :

   NOAA